Station: Yarrawonga  

  Atmospheric Gas Attenuation - ITU Rec 676-11   ----------------- dB/100km -----------------
Date Time Temp RH % AH g/m3 Dew Point Wind Direction Speed kph Gust kph Barometer mB Rainfall Since 9am 24GHz 47GHz 76GHz 122GHz 134GHz 241GHz
08/05 12:30 15.9 65 8.8 9.3 28 39 1022.5 0 19.9 26.0 40.0 104.8 99.1 341.2
08/05 12:20 15.9 66 8.94 9.7 33 39 1022.6 0 20.2 26.2 40.5 106.3 100.9 347.6
08/05 12:10 15.8 69 9.29 10.1 35 41 1022.6 0 20.9 26.8 42.0 110.1 105.7 364.2
08/05 12:00 16 67 9.13 9.9 33 44 1022.6 0 20.6 26.5 41.2 108.1 103.3 355.9
08/05 11:50 16.2 66 9.1 10 33 37 1022.6 0 20.5 26.3 41.0 107.5 102.6 353.6
08/05 11:40 16.2 66 9.1 10 39 44 1022.6 0 20.5 26.3 41.0 107.5 102.6 353.6
08/05 11:30 15.9 69 9.34 10.2 33 43 1022.8 0 21.0 26.8 42.1 110.5 106.2 366.1
08/05 11:20 15.2 72 9.35 10.2 30 37 1022.9 0 21.1 27.1 42.5 111.7 107.3 369.8
08/05 11:10 14.8 72 9.12 9.8 30 35 1023 0 20.6 26.8 41.8 109.7 104.8 361.0
08/05 11:00 15.1 74 9.55 10.5 30 41 1022.9 0 21.5 27.4 43.4 114.0 110.2 379.7
08/05 10:50 15 76 9.75 10.8 32 37 1023 0 22.0 27.8 44.3 116.3 113.0 389.8
08/05 10:40 14.7 75 9.44 10.3 35 43 1022.9 0 21.3 27.4 43.2 113.4 109.2 376.5
08/05 10:30 14.3 75 9.21 9.9 33 50 1023 0 20.9 27.1 42.5 111.4 106.7 367.5
08/05 10:20 14.8 73 9.25 10 32 35 1023 0 20.9 27.0 42.4 111.1 106.6 367.1
08/05 10:10 14.4 75 9.27 10 32 35 1022.9 0 21.0 27.2 42.6 111.9 107.4 369.9
08/05 10:00 14.1 79 9.59 10.5 26 33 1022.9 0 21.7 27.8 44.1 115.9 112.2 386.5
08/05 09:50 13.4 80 9.3 10 24 28 1023 0 21.1 27.5 43.3 113.7 109.2 376.1
08/05 09:40 13.3 81 9.36 10.1 26 32 1023.1 0 21.2 27.7 43.6 114.5 110.2 379.5
08/05 09:30 13.3 80 9.24 9.9 30 39 1023 0 21.0 27.5 43.1 113.2 108.5 373.7
08/05 09:20 12.6 82 9.07 9.6 30 35 1023 0 20.6 27.4 42.8 112.3 107.2 368.9
08/05 09:10 12.2 85 9.17 9.7 26 30 1023.1 0 20.9 27.7 43.4 114.0 109.1 375.6
08/05 09:00 11.9 86 9.11 9.6 30 39 1022.9 0 20.8 27.7 43.3 113.7 108.7 374.1
08/05 08:50 11.7 87 9.1 9.6 33 39 1022.8 0 20.8 27.7 43.4 113.9 108.8 374.6
08/05 08:40 11.4 89 9.14 9.6 26 30 1022.8 0 20.9 27.9 43.7 114.8 109.8 378.0
08/05 08:30 10.9 89 8.85 9.2 22 30 1022.8 0 20.3 27.6 42.8 112.2 106.5 366.2
08/05 08:20 10.4 90 8.68 8.8 28 32 1022.7 0 19.9 27.4 42.3 111.0 104.8 360.2
08/05 08:10 10.6 90 8.79 9 30 35 1022.7 0 20.1 27.5 42.7 112.0 106.0 364.6
08/05 08:00 10.6 90 8.79 9 22 33 1022.7 0 20.1 27.5 42.7 112.0 106.0 364.6
08/05 07:50 10.4 90 8.68 8.8 24 32 1022.7 0 19.9 27.4 42.3 111.0 104.8 360.2
08/05 07:40 10.3 91 8.72 8.9 19 22 1022.7 0 20.0 27.5 42.6 111.6 105.5 362.6
08/05 07:30 10.1 91 8.61 8.7 20 32 1022.5 0 19.8 27.4 42.2 110.6 104.2 358.1
08/05 07:20 9.9 91 8.5 8.5 26 32 1022.4 0 19.6 27.2 41.8 109.7 102.9 353.6
08/05 07:10 9.6 92 8.43 8.3 22 28 1022.3 0 19.4 27.2 41.7 109.3 102.3 351.5
08/05 07:00 9.6 91 8.34 8.2 19 26 1022.3 0 19.2 27.1 41.3 108.3 101.0 347.1
08/05 06:50 9.7 91 8.39 8.3 22 24 1022.3 0 19.3 27.1 41.5 108.7 101.6 349.1
08/05 06:40 9.6 91 8.34 8.2 19 22 1022.4 0 19.2 27.1 41.3 108.3 101.1 347.1
08/05 06:30 9.7 90 8.3 8.1 19 26 1022.3 0 19.1 27.0 41.1 107.7 100.4 344.7
08/05 06:20 9.7 90 8.3 8.1 19 24 1022.3 0 19.1 27.0 41.1 107.7 100.4 344.7
08/05 06:10 9.8 88 8.17 8 20 30 1022.4 0 18.9 26.7 40.5 106.1 98.4 338.0
08/05 06:00 10 88 8.27 8.1 19 28 1022.3 0 19.1 26.8 40.8 106.9 99.6 341.9
08/05 05:50 9.9 88 8.22 8 17 22 1022.2 0 19.0 26.8 40.6 106.5 99.0 339.9
08/05 05:40 10 86 8.08 7.7 20 26 1022.1 0 18.6 26.5 40.0 104.8 96.9 332.7
08/05 05:30 10.2 85 8.09 7.8 19 26 1022.1 0 18.7 26.5 39.9 104.6 96.8 332.3
08/05 05:20 10.3 84 8.05 7.7 17 22 1022.3 0 18.6 26.4 39.7 104.1 96.1 330.0
08/05 05:10 10.4 83 8 7.6 19 22 1022.2 0 18.5 26.2 39.5 103.4 95.3 327.2
08/05 05:00 10.4 82 7.9 7.5 19 26 1022.1 0 18.2 26.1 39.0 102.2 94.0 322.4
08/05 04:50 10.4 82 7.9 7.4 19 26 1022 0 18.2 26.1 39.0 102.2 94.0 322.4
08/05 04:40 10.5 80 7.76 7.3 17 20 1021.9 0 17.9 25.8 38.4 100.6 91.9 315.3
08/05 04:30 10.4 81 7.81 7.3 17 24 1021.8 0 18.1 25.9 38.7 101.2 92.7 318.1
08/05 04:20 10.3 80 7.66 7 15 19 1021.7 0 17.7 25.7 38.1 99.7 90.8 311.3
08/05 04:10 10.2 80 7.61 6.9 15 19 1021.7 0 17.6 25.6 37.9 99.3 90.3 309.4
08/05 04:00 10.4 79 7.62 6.9 17 24 1021.7 0 17.6 25.6 37.9 99.1 90.2 309.1
08/05 03:50 10.5 78 7.57 6.8 19 24 1021.9 0 17.5 25.5 37.6 98.5 89.4 306.4
08/05 03:40 10.6 78 7.61 6.9 15 19 1022 0 17.6 25.5 37.7 98.8 89.8 307.9
08/05 03:30 10.6 78 7.61 6.9 17 22 1022 0 17.6 25.5 37.7 98.8 89.8 307.9
08/05 03:20 10.6 77 7.52 6.7 15 19 1021.9 0 17.4 25.4 37.4 97.8 88.6 303.7
08/05 03:10 10.4 76 7.33 6.3 19 22 1021.9 0 17.0 25.1 36.7 96.0 86.3 295.6
08/05 03:00 10.5 75 7.28 6.3 17 28 1022 0 16.9 25.0 36.5 95.4 85.5 292.9
08/05 02:50 10.6 74 7.22 6.1 17 20 1022 0 16.8 24.9 36.2 94.6 84.6 289.7
08/05 02:40 10.7 74 7.27 6.2 19 22 1022 0 16.9 25.0 36.3 95.0 85.2 291.7
08/05 02:30 10.7 73 7.17 6.1 20 30 1022.1 0 16.7 24.8 35.9 94.0 83.9 287.1
08/05 02:20 10.7 73 7.17 6 19 22 1022 0 16.7 24.8 35.9 94.0 83.9 287.1
08/05 02:10 10.6 73 7.13 5.9 17 20 1022 0 16.6 24.8 35.8 93.7 83.4 285.6
08/05 02:00 10.7 73 7.17 6.1 15 24 1022.1 0 16.7 24.8 35.9 94.0 83.9 287.1
08/05 01:50 10.6 73 7.13 5.9 15 19 1022.3 0 16.6 24.8 35.8 93.7 83.5 285.7
08/05 01:40 10.6 73 7.13 5.9 17 20 1022.3 0 16.6 24.8 35.8 93.7 83.5 285.7
08/05 01:30 10.5 74 7.18 6.1 20 28 1022.5 0 16.7 24.9 36.1 94.4 84.2 288.4
08/05 01:20 10.5 75 7.28 6.2 24 28 1022.6 0 16.9 25.0 36.5 95.4 85.6 293.0
08/05 01:10 10.3 74 7.09 6 13 19 1022.6 0 16.5 24.8 35.8 93.6 83.3 285.0
08/05 01:00 10.2 76 7.23 6.2 15 24 1022.7 0 16.8 25.1 36.4 95.3 85.3 291.8
08/05 00:50 10.4 75 7.23 6.1 17 20 1022.7 0 16.8 25.0 36.3 95.0 85.0 291.1
08/05 00:40 10.5 76 7.37 6.4 24 30 1022.8 0 17.1 25.2 36.9 96.4 86.8 297.3
08/05 00:30 10.3 76 7.28 6.3 20 26 1022.8 0 16.9 25.1 36.6 95.7 85.8 293.8
08/05 00:20 10.3 76 7.28 6.2 22 24 1023 0 16.9 25.1 36.6 95.7 85.8 293.9
08/05 00:10 10.3 73 6.99 5.8 19 22 1023.1 0 16.3 24.7 35.4 92.6 82.0 280.5
08/05 00:00 10.3 75 7.18 6.1 15 19 1023.1 0 16.7 25.0 36.2 94.7 84.5 289.3
07/05 23:50 10.2 76 7.23 6.1 13 15 1023.2 0 16.8 25.1 36.5 95.3 85.3 292.0
07/05 23:40 10.1 76 7.19 6 13 15 1023.3 0 16.7 25.0 36.3 95.0 84.9 290.5
07/05 23:30 10 77 7.24 6.2 11 17 1023.4 0 16.8 25.2 36.6 95.7 85.7 293.2
07/05 23:20 9.9 78 7.28 6.2 13 15 1023.3 0 16.9 25.2 36.8 96.2 86.3 295.4
07/05 23:10 9.9 78 7.28 6.2 13 15 1023.4 0 16.9 25.2 36.8 96.2 86.3 295.5
07/05 23:00 9.8 78 7.24 6.2 15 19 1023.5 0 16.9 25.2 36.7 95.9 85.9 294.0
07/05 22:50 9.7 79 7.29 6.2 15 17 1023.7 0 17.0 25.3 36.9 96.6 86.7 296.8
07/05 22:40 9.5 79 7.19 6 13 15 1023.7 0 16.8 25.2 36.6 95.8 85.6 292.8
07/05 22:30 9.5 78 7.1 5.9 13 19 1023.6 0 16.6 25.1 36.3 94.8 84.4 288.6
07/05 22:20 9.6 78 7.15 5.9 15 19 1023.6 0 16.7 25.1 36.4 95.2 84.9 290.6
07/05 22:10 9.8 77 7.15 5.9 15 17 1023.9 0 16.7 25.1 36.3 95.0 84.7 289.9
07/05 22:00 9.9 76 7.1 5.9 17 24 1024 0 16.5 25.0 36.1 94.4 83.9 287.2
07/05 21:50 9.9 77 7.19 6 15 19 1024 0 16.7 25.1 36.5 95.3 85.1 291.4
07/05 21:40 9.9 75 7 5.8 15 19 1023.9 0 16.3 24.8 35.7 93.3 82.6 282.6
07/05 21:30 9.9 76 7.1 5.9 17 22 1023.8 0 16.5 25.0 36.1 94.3 83.9 287.2
07/05 21:20 9.8 75 6.96 5.7 15 17 1023.8 0 16.3 24.8 35.6 93.0 82.2 281.0
07/05 21:10 9.8 75 6.96 5.7 15 17 1023.9 0 16.3 24.8 35.6 93.0 82.2 281.1
07/05 21:00 9.8 76 7.05 5.8 15 20 1023.9 0 16.4 24.9 35.9 93.9 83.4 285.2
07/05 20:50 9.6 76 6.96 5.7 15 19 1024 0 16.3 24.8 35.7 93.2 82.4 281.8
07/05 20:40 9.4 76 6.88 5.5 11 13 1023.8 0 16.1 24.8 35.4 92.6 81.6 278.8
07/05 20:30 9.2 77 6.88 5.4 15 19 1023.8 0 16.1 24.8 35.5 92.8 81.8 279.5
07/05 20:20 9.1 76 6.75 5.2 15 19 1023.8 0 15.8 24.6 35.0 91.5 80.1 273.8
07/05 20:10 8.9 77 6.75 5.1 15 15 1023.7 0 15.8 24.7 35.1 91.8 80.3 274.4
07/05 20:00 9 76 6.7 5 11 15 1023.7 0 15.7 24.6 34.9 91.1 79.6 271.8

Last Refresh: 08-May-2026 12:08:19

Bureau of Meteorology